Queenstown, South Africa
Current Conditions -  °F | °C
As of 11:00 AM on Sunday 23 Nov 2014 (Local Time) from FAEL Reporting Station
Few Clouds Few Clouds  
Wind Chill: 79°   Ceiling: Unl
Heat Index: 81°   Visibility: 6mi
Dew Point: 70°   Wind: 2mph
Humidity: 74%   Direction: NA
Pressure: 29.88"   Gusts: NA
Location:  31.9°S, 26.88°E
Report Text: FAEL 230900Z VRB02KT 9999 FEW047 26/21 Q1012
Loading
Personal Weather Stations






























Interactive Weather Map New forecast layout! Learn more

10-Day Weather Forecast

Advertisements
Track Severe Weather on mobile